sensor_id;sensor_type;location;lat;lon;timestamp;pressure;altitude;pressure_sealevel;temperature;humidity
62725;BME280;49026;52.600;4.694;2022-08-18T00:01:41;101390.78;;;17.27;82.32
62725;BME280;49026;52.600;4.694;2022-08-18T00:04:08;101395.25;;;17.26;82.32
62725;BME280;49026;52.600;4.694;2022-08-18T00:06:39;101388.22;;;17.25;82.57
62725;BME280;49026;52.600;4.694;2022-08-18T00:09:09;101397.16;;;17.24;82.22
62725;BME280;49026;52.600;4.694;2022-08-18T00:11:38;101399.88;;;17.22;82.29
62725;BME280;49026;52.600;4.694;2022-08-18T00:14:04;101403.47;;;17.21;82.29
62725;BME280;49026;52.600;4.694;2022-08-18T00:16:29;101399.19;;;17.19;82.14
62725;BME280;49026;52.600;4.694;2022-08-18T00:18:55;101405.56;;;17.16;82.30
62725;BME280;49026;52.600;4.694;2022-08-18T00:21:20;101396.84;;;17.14;82.15
62725;BME280;49026;52.600;4.694;2022-08-18T00:23:46;101396.91;;;17.13;82.26
62725;BME280;49026;52.600;4.694;2022-08-18T00:26:11;101399.56;;;17.13;82.23
62725;BME280;49026;52.600;4.694;2022-08-18T00:28:36;101391.69;;;17.11;82.21
62725;BME280;49026;52.600;4.694;2022-08-18T00:31:04;101393.50;;;17.11;82.26
62725;BME280;49026;52.600;4.694;2022-08-18T00:33:29;101382.97;;;17.09;82.18
62725;BME280;49026;52.600;4.694;2022-08-18T00:35:56;101380.41;;;17.08;82.17
62725;BME280;49026;52.600;4.694;2022-08-18T00:38:22;101376.03;;;17.07;82.33
62725;BME280;49026;52.600;4.694;2022-08-18T00:40:49;101375.19;;;17.06;82.29
62725;BME280;49026;52.600;4.694;2022-08-18T00:43:54;101375.28;;;17.04;82.25
62725;BME280;49026;52.600;4.694;2022-08-18T00:46:15;101381.34;;;17.07;82.20
62725;BME280;49026;52.600;4.694;2022-08-18T00:48:40;101388.94;;;17.13;82.06
62725;BME280;49026;52.600;4.694;2022-08-18T00:51:17;101393.22;;;17.15;82.29
62725;BME280;49026;52.600;4.694;2022-08-18T00:54:14;101403.75;;;17.17;82.07
62725;BME280;49026;52.600;4.694;2022-08-18T00:56:49;101402.72;;;17.19;82.35
62725;BME280;49026;52.600;4.694;2022-08-18T00:59:27;101399.09;;;17.20;82.22
62725;BME280;49026;52.600;4.694;2022-08-18T01:01:55;101394.66;;;17.21;82.18
62725;BME280;49026;52.600;4.694;2022-08-18T01:04:37;101399.97;;;17.21;82.16
62725;BME280;49026;52.600;4.694;2022-08-18T01:07:10;101386.69;;;17.21;82.34
62725;BME280;49026;52.600;4.694;2022-08-18T01:09:37;101387.53;;;17.21;82.29
62725;BME280;49026;52.600;4.694;2022-08-18T01:12:02;101381.38;;;17.21;82.35
62725;BME280;49026;52.600;4.694;2022-08-18T01:14:28;101377.00;;;17.20;82.30
62725;BME280;49026;52.600;4.694;2022-08-18T01:16:53;101384.31;;;17.16;82.54
62725;BME280;49026;52.600;4.694;2022-08-18T01:19:37;101383.56;;;17.14;82.34
62725;BME280;49026;52.600;4.694;2022-08-18T01:22:30;101388.94;;;17.13;82.44
62725;BME280;49026;52.600;4.694;2022-08-18T01:24:59;101389.13;;;17.10;82.21
62725;BME280;49026;52.600;4.694;2022-08-18T01:27:43;101378.69;;;17.07;82.31
62725;BME280;49026;52.600;4.694;2022-08-18T01:30:14;101378.78;;;17.05;82.30
62725;BME280;49026;52.600;4.694;2022-08-18T01:32:40;101372.88;;;17.00;82.14
62725;BME280;49026;52.600;4.694;2022-08-18T01:35:08;101367.84;;;16.95;82.20
62725;BME280;49026;52.600;4.694;2022-08-18T01:37:34;101368.00;;;16.92;82.15
62725;BME280;49026;52.600;4.694;2022-08-18T01:40:00;101362.91;;;16.89;82.20
62725;BME280;49026;52.600;4.694;2022-08-18T01:42:29;101359.53;;;16.85;82.26
62725;BME280;49026;52.600;4.694;2022-08-18T01:44:55;101365.88;;;16.83;82.20
62725;BME280;49026;52.600;4.694;2022-08-18T01:47:23;101370.41;;;16.81;82.05
62725;BME280;49026;52.600;4.694;2022-08-18T01:49:51;101372.41;;;16.77;82.12
62725;BME280;49026;52.600;4.694;2022-08-18T01:52:20;101368.13;;;16.75;82.01
62725;BME280;49026;52.600;4.694;2022-08-18T01:54:51;101374.44;;;16.72;82.16
62725;BME280;49026;52.600;4.694;2022-08-18T01:57:19;101366.59;;;16.71;82.14
62725;BME280;49026;52.600;4.694;2022-08-18T01:59:47;101369.34;;;16.69;81.99
62725;BME280;49026;52.600;4.694;2022-08-18T02:02:15;101372.16;;;16.66;82.01
62725;BME280;49026;52.600;4.694;2022-08-18T02:04:45;101375.81;;;16.63;82.20
62725;BME280;49026;52.600;4.694;2022-08-18T02:07:12;101369.75;;;16.61;82.00
62725;BME280;49026;52.600;4.694;2022-08-18T02:09:40;101367.28;;;16.58;82.03
62725;BME280;49026;52.600;4.694;2022-08-18T02:12:06;101370.09;;;16.55;82.01
62725;BME280;49026;52.600;4.694;2022-08-18T02:14:33;101367.75;;;16.51;81.97
62725;BME280;49026;52.600;4.694;2022-08-18T02:17:00;101372.34;;;16.47;81.96
62725;BME280;49026;52.600;4.694;2022-08-18T02:19:26;101376.88;;;16.45;82.16
62725;BME280;49026;52.600;4.694;2022-08-18T02:21:53;101368.31;;;16.40;82.10
62725;BME280;49026;52.600;4.694;2022-08-18T02:24:19;101369.38;;;16.37;82.18
62725;BME280;49026;52.600;4.694;2022-08-18T02:26:44;101366.88;;;16.34;82.17
62725;BME280;49026;52.600;4.694;2022-08-18T02:29:12;101373.13;;;16.33;82.11
62725;BME280;49026;52.600;4.694;2022-08-18T02:31:37;101363.56;;;16.30;82.21
62725;BME280;49026;52.600;4.694;2022-08-18T02:34:02;101371.50;;;16.30;82.01
62725;BME280;49026;52.600;4.694;2022-08-18T02:36:28;101375.16;;;16.28;82.21
62725;BME280;49026;52.600;4.694;2022-08-18T02:38:53;101377.91;;;16.26;82.12
62725;BME280;49026;52.600;4.694;2022-08-18T02:41:21;101370.13;;;16.23;82.41
62725;BME280;49026;52.600;4.694;2022-08-18T02:43:49;101371.06;;;16.22;82.35
62725;BME280;49026;52.600;4.694;2022-08-18T02:46:14;101371.06;;;16.22;82.31
62725;BME280;49026;52.600;4.694;2022-08-18T02:48:40;101370.19;;;16.22;82.18
62725;BME280;49026;52.600;4.694;2022-08-18T02:51:12;101376.38;;;16.22;82.28
62725;BME280;49026;52.600;4.694;2022-08-18T02:53:42;101373.81;;;16.21;82.29
62725;BME280;49026;52.600;4.694;2022-08-18T02:56:16;101379.03;;;16.22;82.40
62725;BME280;49026;52.600;4.694;2022-08-18T02:58:57;101382.53;;;16.23;82.27
62725;BME280;49026;52.600;4.694;2022-08-18T03:01:27;101384.13;;;16.25;82.32
62725;BME280;49026;52.600;4.694;2022-08-18T03:03:54;101395.69;;;16.24;82.33
62725;BME280;49026;52.600;4.694;2022-08-18T03:06:20;101402.69;;;16.25;82.30
62725;BME280;49026;52.600;4.694;2022-08-18T03:08:46;101400.84;;;16.27;82.48
62725;BME280;49026;52.600;4.694;2022-08-18T03:11:15;101404.25;;;16.29;82.53
62725;BME280;49026;52.600;4.694;2022-08-18T03:13:41;101403.22;;;16.32;82.58
62725;BME280;49026;52.600;4.694;2022-08-18T03:16:06;101410.16;;;16.35;82.63
62725;BME280;49026;52.600;4.694;2022-08-18T03:18:32;101413.56;;;16.37;82.78
62725;BME280;49026;52.600;4.694;2022-08-18T03:21:06;101415.13;;;16.41;83.24
62725;BME280;49026;52.600;4.694;2022-08-18T03:23:36;101416.66;;;16.45;83.11
62725;BME280;49026;52.600;4.694;2022-08-18T03:26:05;101413.00;;;16.47;83.19
62725;BME280;49026;52.600;4.694;2022-08-18T03:28:33;101410.25;;;16.49;83.32
62725;BME280;49026;52.600;4.694;2022-08-18T03:31:00;101412.84;;;16.51;83.54
62725;BME280;49026;52.600;4.694;2022-08-18T03:33:26;101405.63;;;16.53;83.56
62725;BME280;49026;52.600;4.694;2022-08-18T03:35:51;101404.59;;;16.55;83.63
62725;BME280;49026;52.600;4.694;2022-08-18T03:38:16;101411.44;;;16.59;83.70
62725;BME280;49026;52.600;4.694;2022-08-18T03:40:42;101412.13;;;16.63;83.75
62725;BME280;49026;52.600;4.694;2022-08-18T03:43:07;101405.78;;;16.65;83.86
62725;BME280;49026;52.600;4.694;2022-08-18T03:45:34;101406.56;;;16.67;83.62
62725;BME280;49026;52.600;4.694;2022-08-18T03:48:00;101403.75;;;16.71;83.81
62725;BME280;49026;52.600;4.694;2022-08-18T03:50:27;101408.84;;;16.74;83.99
62725;BME280;49026;52.600;4.694;2022-08-18T03:52:53;101399.97;;;16.75;83.83
62725;BME280;49026;52.600;4.694;2022-08-18T03:55:19;101405.25;;;16.75;83.91
62725;BME280;49026;52.600;4.694;2022-08-18T03:57:48;101403.38;;;16.77;83.92
62725;BME280;49026;52.600;4.694;2022-08-18T04:00:19;101402.34;;;16.79;83.97
62725;BME280;49026;52.600;4.694;2022-08-18T04:02:46;101403.97;;;16.82;84.47
62725;BME280;49026;52.600;4.694;2022-08-18T04:05:11;101397.59;;;16.86;83.97
62725;BME280;49026;52.600;4.694;2022-08-18T04:07:38;101395.69;;;16.88;83.74
62725;BME280;49026;52.600;4.694;2022-08-18T04:10:06;101399.09;;;16.90;83.73
62725;BME280;49026;52.600;4.694;2022-08-18T04:12:32;101401.59;;;16.93;83.69
62725;BME280;49026;52.600;4.694;2022-08-18T04:14:57;101397.03;;;16.95;83.82
62725;BME280;49026;52.600;4.694;2022-08-18T04:17:22;101400.47;;;16.97;83.71
62725;BME280;49026;52.600;4.694;2022-08-18T04:19:51;101399.34;;;17.01;84.00
62725;BME280;49026;52.600;4.694;2022-08-18T04:22:17;101394.78;;;17.03;83.54
62725;BME280;49026;52.600;4.694;2022-08-18T04:24:45;101402.66;;;17.05;83.65
62725;BME280;49026;52.600;4.694;2022-08-18T04:27:10;101396.44;;;17.06;83.42
62725;BME280;49026;52.600;4.694;2022-08-18T04:29:36;101396.50;;;17.04;83.67
62725;BME280;49026;52.600;4.694;2022-08-18T04:32:02;101396.69;;;17.01;83.36
62725;BME280;49026;52.600;4.694;2022-08-18T04:34:29;101403.00;;;16.99;83.35
62725;BME280;49026;52.600;4.694;2022-08-18T04:36:57;101402.34;;;16.95;82.98
62725;BME280;49026;52.600;4.694;2022-08-18T04:39:22;101408.63;;;16.94;83.41
62725;BME280;49026;52.600;4.694;2022-08-18T04:41:53;101404.25;;;16.93;83.53
62725;BME280;49026;52.600;4.694;2022-08-18T04:44:19;101408.69;;;16.93;83.46
62725;BME280;49026;52.600;4.694;2022-08-18T04:46:48;101405.97;;;16.94;83.46
62725;BME280;49026;52.600;4.694;2022-08-18T04:49:18;101405.97;;;16.94;83.60
62725;BME280;49026;52.600;4.694;2022-08-18T04:51:49;101404.06;;;16.96;83.71
62725;BME280;49026;52.600;4.694;2022-08-18T04:54:38;101411.84;;;16.99;83.68
62725;BME280;49026;52.600;4.694;2022-08-18T04:57:08;101409.88;;;17.03;83.75
62725;BME280;49026;52.600;4.694;2022-08-18T04:59:35;101410.53;;;17.07;83.82
62725;BME280;49026;52.600;4.694;2022-08-18T05:02:01;101418.34;;;17.10;83.72
62725;BME280;49026;52.600;4.694;2022-08-18T05:04:32;101413.78;;;17.12;84.06
62725;BME280;49026;52.600;4.694;2022-08-18T05:07:06;101418.84;;;17.16;83.96
62725;BME280;49026;52.600;4.694;2022-08-18T05:09:32;101418.56;;;17.21;83.91
62725;BME280;49026;52.600;4.694;2022-08-18T05:12:00;101427.28;;;17.23;84.09
62725;BME280;49026;52.600;4.694;2022-08-18T05:14:28;101423.50;;;17.27;84.08
62725;BME280;49026;52.600;4.694;2022-08-18T05:16:57;101425.88;;;17.32;84.15
62725;BME280;49026;52.600;4.694;2022-08-18T05:19:25;101416.81;;;17.36;84.13
62725;BME280;49026;52.600;4.694;2022-08-18T05:21:52;101420.03;;;17.41;84.29
62725;BME280;49026;52.600;4.694;2022-08-18T05:24:19;101419.75;;;17.46;84.29
62725;BME280;49026;52.600;4.694;2022-08-18T05:26:45;101428.31;;;17.51;84.44
62725;BME280;49026;52.600;4.694;2022-08-18T05:29:13;101424.50;;;17.55;84.29
62725;BME280;49026;52.600;4.694;2022-08-18T05:31:38;101425.19;;;17.58;84.35
62725;BME280;49026;52.600;4.694;2022-08-18T05:34:04;101423.97;;;17.64;84.42
62725;BME280;49026;52.600;4.694;2022-08-18T05:39:25;101432.53;;;17.69;84.41
62725;BME280;49026;52.600;4.694;2022-08-18T05:42:10;101428.72;;;17.73;84.25
62725;BME280;49026;52.600;4.694;2022-08-18T05:44:48;101427.59;;;17.77;84.28
62725;BME280;49026;52.600;4.694;2022-08-18T05:47:31;101429.09;;;17.82;84.47
62725;BME280;49026;52.600;4.694;2022-08-18T05:50:08;101428.78;;;17.88;84.51
62725;BME280;49026;52.600;4.694;2022-08-18T05:52:40;101432.00;;;17.93;84.74
62725;BME280;49026;52.600;4.694;2022-08-18T05:55:12;101427.25;;;17.98;84.83
62725;BME280;49026;52.600;4.694;2022-08-18T05:58:02;101431.31;;;18.04;84.59
62725;BME280;49026;52.600;4.694;2022-08-18T06:00:32;101429.31;;;18.07;84.47
62725;BME280;49026;52.600;4.694;2022-08-18T06:03:12;101418.50;;;18.10;84.76
62725;BME280;49026;52.600;4.694;2022-08-18T06:06:05;101423.63;;;18.13;84.50
62725;BME280;49026;52.600;4.694;2022-08-18T06:08:37;101432.91;;;18.21;84.59
62725;BME280;49026;52.600;4.694;2022-08-18T06:11:04;101431.41;;;18.31;84.57
62725;BME280;49026;52.600;4.694;2022-08-18T06:13:37;101428.91;;;18.42;84.75
62725;BME280;49026;52.600;4.694;2022-08-18T06:34:46;101420.44;;;19.44;84.50
62725;BME280;49026;52.600;4.694;2022-08-18T06:37:19;101423.94;;;19.45;84.25
62725;BME280;49026;52.600;4.694;2022-08-18T06:39:51;101428.75;;;19.40;84.18
62725;BME280;49026;52.600;4.694;2022-08-18T06:42:21;101437.16;;;19.34;84.26
62725;BME280;49026;52.600;4.694;2022-08-18T06:44:59;101439.06;;;19.32;84.29
62725;BME280;49026;52.600;4.694;2022-08-18T06:47:47;101438.66;;;19.38;84.50
62725;BME280;49026;52.600;4.694;2022-08-18T06:50:29;101438.03;;;19.47;84.29
62725;BME280;49026;52.600;4.694;2022-08-18T06:52:58;101429.63;;;19.53;84.00
62725;BME280;49026;52.600;4.694;2022-08-18T06:55:44;101429.50;;;19.55;83.99
62725;BME280;49026;52.600;4.694;2022-08-18T07:00:41;101431.19;;;19.56;83.84
62725;BME280;49026;52.600;4.694;2022-08-18T07:03:16;101430.34;;;19.55;83.97
62725;BME280;49026;52.600;4.694;2022-08-18T07:06:04;101441.97;;;19.54;83.83
62725;BME280;49026;52.600;4.694;2022-08-18T07:08:52;101450.72;;;19.56;83.81
62725;BME280;49026;52.600;4.694;2022-08-18T07:11:27;101451.28;;;19.61;83.83
62725;BME280;49026;52.600;4.694;2022-08-18T07:14:14;101448.16;;;19.68;83.72
62725;BME280;49026;52.600;4.694;2022-08-18T07:16:45;101450.25;;;19.77;83.97
62725;BME280;49026;52.600;4.694;2022-08-18T07:19:13;101456.72;;;19.86;83.55
62725;BME280;49026;52.600;4.694;2022-08-18T07:21:45;101439.56;;;19.77;83.22
62725;BME280;49026;52.600;4.694;2022-08-18T07:24:27;101445.38;;;19.69;83.50
62725;BME280;49026;52.600;4.694;2022-08-18T07:26:57;101449.97;;;19.67;83.56
62725;BME280;49026;52.600;4.694;2022-08-18T07:29:24;101457.25;;;19.65;83.32
62725;BME280;49026;52.600;4.694;2022-08-18T07:31:51;101460.75;;;19.66;83.40
62725;BME280;49026;52.600;4.694;2022-08-18T07:34:40;101454.47;;;19.67;83.36
62725;BME280;49026;52.600;4.694;2022-08-18T07:37:22;101456.16;;;19.68;83.26
62725;BME280;49026;52.600;4.694;2022-08-18T07:40:06;101464.59;;;19.74;83.35
62725;BME280;49026;52.600;4.694;2022-08-18T07:42:46;101467.94;;;19.78;82.95
62725;BME280;49026;52.600;4.694;2022-08-18T07:45:25;101466.03;;;19.80;83.20
62725;BME280;49026;52.600;4.694;2022-08-18T07:48:03;101467.50;;;19.84;82.99
62725;BME280;49026;52.600;4.694;2022-08-18T07:50:37;101466.56;;;19.85;83.12
62725;BME280;49026;52.600;4.694;2022-08-18T07:55:42;101473.81;;;19.83;82.95
62725;BME280;49026;52.600;4.694;2022-08-18T07:58:21;101481.56;;;19.86;83.07
62725;BME280;49026;52.600;4.694;2022-08-18T08:06:48;101482.22;;;20.15;83.20
62725;BME280;49026;52.600;4.694;2022-08-18T08:14:40;101489.28;;;20.16;83.05
62725;BME280;49026;52.600;4.694;2022-08-18T08:25:23;101480.91;;;20.47;83.17
62725;BME280;49026;52.600;4.694;2022-08-18T08:28:08;101486.41;;;20.69;83.51
62725;BME280;49026;52.600;4.694;2022-08-18T08:30:47;101489.91;;;21.07;84.39
62725;BME280;49026;52.600;4.694;2022-08-18T08:33:36;101490.34;;;21.49;84.88
62725;BME280;49026;52.600;4.694;2022-08-18T08:36:11;101489.72;;;21.92;85.03
62725;BME280;49026;52.600;4.694;2022-08-18T08:38:53;101487.41;;;22.21;84.34
62725;BME280;49026;52.600;4.694;2022-08-18T08:44:13;101487.91;;;22.15;83.48
62725;BME280;49026;52.600;4.694;2022-08-18T08:49:34;101494.22;;;22.03;82.41
62725;BME280;49026;52.600;4.694;2022-08-18T08:52:24;101491.72;;;22.35;82.98
62725;BME280;49026;52.600;4.694;2022-08-18T08:55:15;101486.97;;;22.50;83.79
62725;BME280;49026;52.600;4.694;2022-08-18T08:57:49;101486.31;;;22.69;81.92
62725;BME280;49026;52.600;4.694;2022-08-18T09:00:16;101483.97;;;22.76;80.60
62725;BME280;49026;52.600;4.694;2022-08-18T09:05:27;101475.97;;;23.41;83.28
62725;BME280;49026;52.600;4.694;2022-08-18T09:20:56;101488.69;;;22.29;81.32
62725;BME280;49026;52.600;4.694;2022-08-18T09:23:30;101491.53;;;22.03;81.19
62725;BME280;49026;52.600;4.694;2022-08-18T09:25:59;101495.28;;;21.78;80.75
62725;BME280;49026;52.600;4.694;2022-08-18T09:31:20;101499.25;;;21.61;80.29
62725;BME280;49026;52.600;4.694;2022-08-18T09:34:00;101494.13;;;21.58;80.07
62725;BME280;49026;52.600;4.694;2022-08-18T09:37:09;101502.16;;;21.58;79.96
62725;BME280;49026;52.600;4.694;2022-08-18T09:39:39;101496.09;;;21.56;79.42
62725;BME280;49026;52.600;4.694;2022-08-18T09:42:32;101496.53;;;21.50;79.37
62725;BME280;49026;52.600;4.694;2022-08-18T09:52:58;101502.28;;;21.32;79.10
62725;BME280;49026;52.600;4.694;2022-08-18T10:06:45;101494.94;;;22.16;79.93
62725;BME280;49026;52.600;4.694;2022-08-18T10:09:41;101494.94;;;22.84;79.69
62725;BME280;49026;52.600;4.694;2022-08-18T10:12:21;101486.63;;;23.52;79.65
62725;BME280;49026;52.600;4.694;2022-08-18T10:17:53;101488.25;;;24.47;80.33
62725;BME280;49026;52.600;4.694;2022-08-18T10:20:36;101482.59;;;25.10;80.48
62725;BME280;49026;52.600;4.694;2022-08-18T10:23:06;101476.94;;;25.62;78.66
62725;BME280;49026;52.600;4.694;2022-08-18T10:25:40;101478.06;;;25.69;78.23
62725;BME280;49026;52.600;4.694;2022-08-18T10:28:09;101474.78;;;25.66;79.65
62725;BME280;49026;52.600;4.694;2022-08-18T10:33:08;101468.97;;;25.70;76.33
62725;BME280;49026;52.600;4.694;2022-08-18T10:38:13;101473.81;;;26.14;79.35
62725;BME280;49026;52.600;4.694;2022-08-18T10:40:57;101476.44;;;26.34;79.53
62725;BME280;49026;52.600;4.694;2022-08-18T10:45:58;101480.28;;;26.59;74.77
62725;BME280;49026;52.600;4.694;2022-08-18T10:48:27;101473.16;;;26.40;73.89
62725;BME280;49026;52.600;4.694;2022-08-18T10:51:01;101486.63;;;26.68;74.11
62725;BME280;49026;52.600;4.694;2022-08-18T10:53:36;101487.81;;;26.83;74.42
62725;BME280;49026;52.600;4.694;2022-08-18T10:56:09;101490.22;;;26.58;74.33
62725;BME280;49026;52.600;4.694;2022-08-18T10:58:54;101487.34;;;26.70;74.74
62725;BME280;49026;52.600;4.694;2022-08-18T11:04:43;101473.78;;;25.96;72.65
62725;BME280;49026;52.600;4.694;2022-08-18T11:07:16;101470.16;;;25.58;72.08
62725;BME280;49026;52.600;4.694;2022-08-18T11:09:45;101475.69;;;25.18;72.03
62725;BME280;49026;52.600;4.694;2022-08-18T11:12:14;101478.06;;;25.21;73.55
62725;BME280;49026;52.600;4.694;2022-08-18T11:15:08;101468.44;;;25.67;71.73
62725;BME280;49026;52.600;4.694;2022-08-18T11:20:20;101481.44;;;26.29;69.35
62725;BME280;49026;52.600;4.694;2022-08-18T11:22:53;101467.53;;;26.51;69.68
62725;BME280;49026;52.600;4.694;2022-08-18T11:25:26;101472.88;;;26.61;68.03
62725;BME280;49026;52.600;4.694;2022-08-18T11:27:54;101467.47;;;26.89;69.77
62725;BME280;49026;52.600;4.694;2022-08-18T11:30:22;101463.84;;;27.34;69.35
62725;BME280;49026;52.600;4.694;2022-08-18T11:32:51;101471.13;;;27.86;68.84
62725;BME280;49026;52.600;4.694;2022-08-18T11:35:24;101470.66;;;28.17;68.19
62725;BME280;49026;52.600;4.694;2022-08-18T11:37:59;101456.03;;;28.01;66.40
62725;BME280;49026;52.600;4.694;2022-08-18T11:43:05;101459.81;;;28.08;65.00
62725;BME280;49026;52.600;4.694;2022-08-18T11:45:49;101454.25;;;27.84;62.99
62725;BME280;49026;52.600;4.694;2022-08-18T11:50:58;101451.78;;;27.46;66.01
62725;BME280;49026;52.600;4.694;2022-08-18T12:01:57;101446.69;;;28.22;67.12
62725;BME280;49026;52.600;4.694;2022-08-18T12:04:30;101450.84;;;28.51;64.75
62725;BME280;49026;52.600;4.694;2022-08-18T12:07:07;101450.28;;;29.06;65.02
62725;BME280;49026;52.600;4.694;2022-08-18T12:09:38;101455.88;;;29.29;64.05
62725;BME280;49026;52.600;4.694;2022-08-18T12:12:06;101457.38;;;29.15;63.26
62725;BME280;49026;52.600;4.694;2022-08-18T12:17:41;101451.94;;;28.74;63.95
62725;BME280;49026;52.600;4.694;2022-08-18T12:20:07;101438.75;;;28.79;65.57
62725;BME280;49026;52.600;4.694;2022-08-18T12:22:37;101441.81;;;28.93;64.63
62725;BME280;49026;52.600;4.694;2022-08-18T12:25:05;101423.69;;;28.60;63.63
62725;BME280;49026;52.600;4.694;2022-08-18T12:27:33;101428.47;;;28.24;65.42
62725;BME280;49026;52.600;4.694;2022-08-18T12:29:59;101424.09;;;28.31;63.78
62725;BME280;49026;52.600;4.694;2022-08-18T12:32:27;101412.34;;;28.65;63.99
62725;BME280;49026;52.600;4.694;2022-08-18T12:34:52;101418.31;;;28.26;62.95
62725;BME280;49026;52.600;4.694;2022-08-18T12:37:21;101424.50;;;27.49;62.63
62725;BME280;49026;52.600;4.694;2022-08-18T12:39:47;101431.25;;;26.91;62.92
62725;BME280;49026;52.600;4.694;2022-08-18T12:42:13;101417.84;;;26.99;64.09
62725;BME280;49026;52.600;4.694;2022-08-18T12:44:39;101416.25;;;27.51;64.50
62725;BME280;49026;52.600;4.694;2022-08-18T12:47:25;101415.63;;;28.26;63.86
62725;BME280;49026;52.600;4.694;2022-08-18T12:49:51;101406.63;;;28.68;63.50
62725;BME280;49026;52.600;4.694;2022-08-18T12:52:17;101411.69;;;28.63;63.30
62725;BME280;49026;52.600;4.694;2022-08-18T12:54:46;101412.91;;;28.77;63.58
62725;BME280;49026;52.600;4.694;2022-08-18T12:57:23;101412.22;;;29.08;62.82
62725;BME280;49026;52.600;4.694;2022-08-18T12:59:48;101411.38;;;29.32;60.95
62725;BME280;49026;52.600;4.694;2022-08-18T13:02:16;101404.09;;;29.49;61.05
62725;BME280;49026;52.600;4.694;2022-08-18T13:04:42;101408.13;;;29.61;62.52
62725;BME280;49026;52.600;4.694;2022-08-18T13:07:10;101411.31;;;29.65;62.06
62725;BME280;49026;52.600;4.694;2022-08-18T13:09:36;101397.94;;;29.63;61.34
62725;BME280;49026;52.600;4.694;2022-08-18T13:12:01;101396.56;;;29.75;62.67
62725;BME280;49026;52.600;4.694;2022-08-18T13:14:27;101394.97;;;30.06;60.04
62725;BME280;49026;52.600;4.694;2022-08-18T13:16:53;101386.41;;;29.86;60.53
62725;BME280;49026;52.600;4.694;2022-08-18T13:19:19;101399.16;;;29.77;59.89
62725;BME280;49026;52.600;4.694;2022-08-18T13:21:44;101406.88;;;29.88;59.55
62725;BME280;49026;52.600;4.694;2022-08-18T13:24:10;101409.91;;;29.93;60.94
62725;BME280;49026;52.600;4.694;2022-08-18T13:26:38;101413.25;;;30.04;60.48
62725;BME280;49026;52.600;4.694;2022-08-18T13:29:06;101413.66;;;29.92;60.08
62725;BME280;49026;52.600;4.694;2022-08-18T13:31:34;101408.59;;;29.73;60.13
62725;BME280;49026;52.600;4.694;2022-08-18T13:34:02;101413.84;;;29.74;61.06
62725;BME280;49026;52.600;4.694;2022-08-18T13:36:28;101414.91;;;29.57;60.54
62725;BME280;49026;52.600;4.694;2022-08-18T13:39:12;101420.50;;;29.47;60.42
62725;BME280;49026;52.600;4.694;2022-08-18T13:41:39;101423.88;;;29.00;59.30
62725;BME280;49026;52.600;4.694;2022-08-18T13:44:07;101417.88;;;28.39;60.12
62725;BME280;49026;52.600;4.694;2022-08-18T13:46:34;101412.66;;;28.54;59.74
62725;BME280;49026;52.600;4.694;2022-08-18T13:49:07;101415.44;;;28.70;58.55
62725;BME280;49026;52.600;4.694;2022-08-18T13:51:32;101419.34;;;29.00;58.97
62725;BME280;49026;52.600;4.694;2022-08-18T13:53:57;101416.44;;;29.51;57.73
62725;BME280;49026;52.600;4.694;2022-08-18T13:56:22;101419.91;;;29.77;58.16
62725;BME280;49026;52.600;4.694;2022-08-18T13:58:48;101425.94;;;29.47;55.71
62725;BME280;49026;52.600;4.694;2022-08-18T14:01:13;101430.47;;;28.81;56.76
62725;BME280;49026;52.600;4.694;2022-08-18T14:03:38;101446.03;;;28.28;57.28
62725;BME280;49026;52.600;4.694;2022-08-18T14:06:04;101441.34;;;27.96;57.47
62725;BME280;49026;52.600;4.694;2022-08-18T14:08:30;101446.03;;;27.67;57.92
62725;BME280;49026;52.600;4.694;2022-08-18T14:10:58;101443.81;;;27.37;57.84
62725;BME280;49026;52.600;4.694;2022-08-18T14:13:27;101443.75;;;27.10;58.04
62725;BME280;49026;52.600;4.694;2022-08-18T14:15:56;101445.59;;;26.92;59.22
62725;BME280;49026;52.600;4.694;2022-08-18T14:18:25;101453.38;;;26.77;58.05
62725;BME280;49026;52.600;4.694;2022-08-18T14:20:51;101447.34;;;26.65;57.89
62725;BME280;49026;52.600;4.694;2022-08-18T14:23:35;101444.84;;;26.54;57.95
62725;BME280;49026;52.600;4.694;2022-08-18T14:26:19;101454.88;;;26.34;58.13
62725;BME280;49026;52.600;4.694;2022-08-18T14:29:05;101446.50;;;26.09;58.84
62725;BME280;49026;52.600;4.694;2022-08-18T14:31:31;101448.63;;;26.05;58.79
62725;BME280;49026;52.600;4.694;2022-08-18T14:33:57;101442.66;;;26.12;58.80
62725;BME280;49026;52.600;4.694;2022-08-18T14:36:22;101444.66;;;26.10;57.82
62725;BME280;49026;52.600;4.694;2022-08-18T14:38:50;101449.06;;;26.01;58.44
62725;BME280;49026;52.600;4.694;2022-08-18T14:41:18;101435.78;;;25.89;58.28
62725;BME280;49026;52.600;4.694;2022-08-18T14:43:44;101447.84;;;25.76;57.76
62725;BME280;49026;52.600;4.694;2022-08-18T14:46:10;101440.06;;;25.73;57.73
62725;BME280;49026;52.600;4.694;2022-08-18T14:48:37;101444.91;;;25.69;57.65
62725;BME280;49026;52.600;4.694;2022-08-18T14:51:03;101442.63;;;25.74;56.82
62725;BME280;49026;52.600;4.694;2022-08-18T14:53:31;101443.47;;;25.84;57.59
62725;BME280;49026;52.600;4.694;2022-08-18T14:56:01;101451.22;;;25.97;57.84
62725;BME280;49026;52.600;4.694;2022-08-18T14:58:30;101443.00;;;25.99;56.93
62725;BME280;49026;52.600;4.694;2022-08-18T15:01:05;101447.13;;;25.83;57.27
62725;BME280;49026;52.600;4.694;2022-08-18T15:03:33;101452.16;;;25.59;57.43
62725;BME280;49026;52.600;4.694;2022-08-18T15:06:00;101445.97;;;25.39;57.84
62725;BME280;49026;52.600;4.694;2022-08-18T15:08:26;101445.00;;;25.30;58.44
62725;BME280;49026;52.600;4.694;2022-08-18T15:10:52;101453.16;;;25.19;58.81
62725;BME280;49026;52.600;4.694;2022-08-18T15:13:18;101449.91;;;24.95;58.95